Columbus, Ohio
Traffic Map
Current Weather Conditions
Columbus, Ohio
Overcast
Overcast
17°
Feels Like: 17°
Wind Chill: 17° Ceiling: 2500
Heat Index: 17° Visibility: 10mi
Dew Point: Wind: 0mph
Humidity: 62% Direction: ° ()
Pressure: 30.15in Gusts: 0mph
Raw Report DataKCMH 161651Z 00000KT 10SM SCT017 OVC025 17/09 A3015 RMK AO2 SLP206 T01670094
Traffic Incident Summary
Active as of:
Severity:
Category:
InformationThere was an issue retrieving the traffic information for this location. Please try a different location or try again shortly.
Advertisements
Track Severe Weather on mobile